Time;durP1;ratioP1;P1;durP2;ratioP2;P2;SDS_P1;SDS_P2;PMS_P1;PMS_P2;Temp;Humidity;BMP_temperature;BMP_pressure;BME280_temperature;BME280_humidity;BME280_pressure;Samples;Min_cycle;Max_cycle;Signal;HPM_P1;HPM_P2
2021/01/03 00:00:40;;;;;;;15.03;9.33;;;3.60;99.90;;;;;;5046119;28;20202;-64
2021/01/03 00:03:06;;;;;;;13.67;8.57;;;3.50;99.90;;;;;;5049138;28;20273;-64
2021/01/03 00:05:32;;;;;;;12.50;7.90;;;3.50;99.90;;;;;;5054280;28;20191;-64
2021/01/03 00:07:59;;;;;;;12.43;9.60;;;3.50;99.90;;;;;;5054268;28;20182;-66
2021/01/03 00:10:25;;;;;;;14.73;8.87;;;3.50;99.90;;;;;;5049783;28;20464;-66
2021/01/03 00:12:50;;;;;;;14.73;8.90;;;3.60;99.90;;;;;;5046545;28;20491;-66
2021/01/03 00:15:19;;;;;;;12.43;8.23;;;3.50;99.90;;;;;;5053642;28;20437;-66
2021/01/03 00:17:45;;;;;;;16.63;9.37;;;3.50;99.90;;;;;;5053721;28;20179;-66
2021/01/03 00:20:15;;;;;;;14.53;9.43;;;3.50;99.90;;;;;;5052219;28;20422;-65
2021/01/03 00:22:41;;;;;;;11.57;9.13;;;3.50;99.90;;;;;;5042722;28;21107;-66
2021/01/03 00:25:08;;;;;;;13.87;9.30;;;3.50;99.90;;;;;;5040932;28;20500;-65
2021/01/03 00:27:35;;;;;;;13.83;8.80;;;3.60;99.90;;;;;;5042486;28;20211;-64
2021/01/03 00:30:00;;;;;;;13.60;9.00;;;3.50;99.90;;;;;;5045903;28;20442;-65
2021/01/03 00:32:26;;;;;;;13.07;8.77;;;3.50;99.90;;;;;;5038766;28;20477;-65
2021/01/03 00:34:52;;;;;;;14.40;8.67;;;3.50;99.90;;;;;;5053045;28;20563;-64
2021/01/03 00:37:21;;;;;;;12.00;8.40;;;3.40;99.90;;;;;;5053273;28;20171;-64
2021/01/03 00:39:49;;;;;;;14.40;8.83;;;3.40;99.90;;;;;;5053340;28;20526;-65
2021/01/03 00:42:15;;;;;;;13.93;8.83;;;3.30;99.90;;;;;;5027775;28;20830;-63
2021/01/03 00:44:40;;;;;;;14.03;9.30;;;3.40;99.90;;;;;;5050548;28;20904;-66
2021/01/03 00:47:06;;;;;;;13.60;8.80;;;3.30;99.90;;;;;;5052923;28;20515;-67
2021/01/03 00:49:31;;;;;;;14.70;9.13;;;3.30;99.90;;;;;;5052914;28;20175;-66
2021/01/03 00:51:57;;;;;;;13.43;9.37;;;3.30;99.90;;;;;;5052723;28;20609;-65
2021/01/03 00:54:22;;;;;;;13.93;9.57;;;3.30;99.90;;;;;;5052952;28;20171;-64
2021/01/03 00:56:48;;;;;;;14.53;8.73;;;3.30;99.90;;;;;;5033765;28;20653;-67
2021/01/03 00:59:14;;;;;;;15.60;9.63;;;3.20;99.90;;;;;;5052820;28;20802;-65
2021/01/03 01:01:39;;;;;;;13.80;9.07;;;3.30;99.90;;;;;;5052720;28;20229;-65
2021/01/03 01:04:05;;;;;;;13.53;9.03;;;3.30;99.90;;;;;;5033880;28;20217;-65
2021/01/03 01:06:30;;;;;;;14.20;9.60;;;3.30;99.90;;;;;;5041040;28;20573;-65
2021/01/03 01:08:56;;;;;;;12.90;8.87;;;3.30;99.90;;;;;;5038386;28;20180;-65
2021/01/03 01:11:24;;;;;;;13.97;9.27;;;3.30;99.90;;;;;;5043619;28;20218;-65
2021/01/03 01:13:49;;;;;;;14.53;9.17;;;3.30;99.90;;;;;;5029154;28;20183;-66
2021/01/03 01:16:15;;;;;;;12.07;8.33;;;3.30;99.90;;;;;;5052464;28;20802;-65
2021/01/03 01:18:40;;;;;;;14.40;9.27;;;3.30;99.90;;;;;;5031996;28;20183;-66
2021/01/03 01:21:07;;;;;;;16.40;9.60;;;3.30;99.90;;;;;;5050972;28;20183;-64
2021/01/03 01:23:33;;;;;;;13.67;9.07;;;3.20;99.90;;;;;;5048121;28;20186;-66
2021/01/03 01:25:59;;;;;;;14.77;9.90;;;3.30;99.90;;;;;;5031621;28;20433;-65
2021/01/03 01:28:24;;;;;;;16.47;9.27;;;3.30;99.90;;;;;;5052273;28;20418;-64
2021/01/03 01:30:50;;;;;;;12.47;8.33;;;3.20;99.90;;;;;;5039863;28;20430;-65
2021/01/03 01:33:16;;;;;;;13.57;8.97;;;3.30;99.90;;;;;;5039769;28;20713;-65
2021/01/03 01:35:41;;;;;;;14.17;8.73;;;3.30;99.90;;;;;;5043492;28;20569;-63
2021/01/03 01:38:07;;;;;;;11.20;8.20;;;3.30;99.90;;;;;;5043222;28;20183;-66
2021/01/03 01:40:38;;;;;;;11.67;8.60;;;3.30;99.90;;;;;;5043284;28;20175;-64
2021/01/03 01:43:06;;;;;;;14.60;9.07;;;3.30;99.90;;;;;;5037878;28;20184;-66
2021/01/03 01:45:35;;;;;;;13.67;8.80;;;3.30;99.90;;;;;;5048321;28;20421;-64
2021/01/03 01:48:11;;;;;;;13.93;8.67;;;3.20;99.90;;;;;;5039689;28;20418;-65
2021/01/03 01:50:47;;;;;;;13.27;8.50;;;3.30;99.90;;;;;;5034673;28;20429;-64
2021/01/03 01:53:34;;;;;;;14.63;9.20;;;3.20;99.90;;;;;;5038755;28;20457;-64
2021/01/03 01:56:44;;;;;;;11.90;8.37;;;3.20;99.90;;;;;;5045713;28;20420;-64
2021/01/03 01:59:19;;;;;;;12.20;8.63;;;3.20;99.90;;;;;;5019581;28;20418;-66
2021/01/03 02:02:11;;;;;;;15.23;8.87;;;3.20;99.90;;;;;;5037186;28;20513;-66
2021/01/03 02:04:59;;;;;;;12.87;8.47;;;3.20;99.90;;;;;;5011034;28;20913;-65
2021/01/03 02:07:37;;;;;;;13.37;8.80;;;3.20;99.90;;;;;;5012063;28;20434;-65
2021/01/03 02:10:24;;;;;;;14.57;9.37;;;3.20;99.90;;;;;;5011747;28;20896;-64
2021/01/03 02:13:08;;;;;;;14.50;8.90;;;3.10;99.90;;;;;;5010965;28;20845;-67
2021/01/03 02:15:35;;;;;;;14.03;8.40;;;3.20;99.90;;;;;;5011473;28;20775;-66
2021/01/03 02:18:04;;;;;;;11.53;8.30;;;3.10;99.90;;;;;;5011708;28;20423;-65
2021/01/03 02:20:35;;;;;;;11.23;7.67;;;3.10;99.90;;;;;;4994139;28;20399;-65
2021/01/03 02:23:05;;;;;;;13.87;8.77;;;3.10;99.90;;;;;;5011412;28;20473;-66
2021/01/03 02:25:31;;;;;;;14.20;9.10;;;3.10;99.90;;;;;;5011698;28;20758;-64
2021/01/03 02:28:21;;;;;;;14.63;9.10;;;3.10;99.90;;;;;;5011525;28;20426;-65
2021/01/03 02:30:51;;;;;;;12.47;8.63;;;3.10;99.90;;;;;;5011524;28;20172;-65
2021/01/03 02:33:30;;;;;;;13.07;8.93;;;3.10;99.90;;;;;;5010826;28;20447;-65
2021/01/03 02:36:01;;;;;;;14.60;9.50;;;3.00;99.90;;;;;;5011214;28;20430;-64
2021/01/03 02:38:29;;;;;;;13.80;8.77;;;3.10;99.90;;;;;;5011524;28;20547;-66
2021/01/03 02:40:55;;;;;;;12.60;8.17;;;3.00;99.90;;;;;;5010716;28;20430;-65
2021/01/03 02:43:21;;;;;;;13.23;9.17;;;3.00;99.90;;;;;;5011234;28;20775;-65
2021/01/03 02:45:47;;;;;;;14.10;8.70;;;3.00;99.90;;;;;;4993687;28;20423;-64
2021/01/03 02:48:19;;;;;;;11.53;7.67;;;3.10;99.90;;;;;;5011067;28;20883;-66
2021/01/03 02:50:45;;;;;;;13.57;8.73;;;3.10;99.90;;;;;;5011182;28;20427;-64
2021/01/03 02:53:11;;;;;;;14.63;9.20;;;3.20;99.90;;;;;;5011234;28;20541;-63
2021/01/03 02:55:37;;;;;;;14.17;8.80;;;3.10;99.90;;;;;;5011246;28;20530;-65
2021/01/03 02:58:02;;;;;;;13.30;9.17;;;3.00;99.90;;;;;;5011038;28;20240;-65
2021/01/03 03:00:32;;;;;;;11.93;8.00;;;3.10;99.90;;;;;;5014046;28;20585;-65
2021/01/03 03:02:58;;;;;;;13.33;9.23;;;3.00;99.90;;;;;;5023280;28;20531;-66
2021/01/03 03:05:24;;;;;;;12.30;8.70;;;3.00;99.90;;;;;;5034808;28;20909;-65
2021/01/03 03:07:50;;;;;;;13.63;9.20;;;3.10;99.90;;;;;;5034978;28;20480;-64
2021/01/03 03:10:17;;;;;;;14.17;8.80;;;3.10;99.90;;;;;;5034908;28;20513;-65
2021/01/03 03:12:48;;;;;;;12.43;8.00;;;3.00;99.90;;;;;;5034557;28;20844;-64
2021/01/03 03:15:14;;;;;;;12.03;8.03;;;3.00;99.90;;;;;;5033696;28;20425;-65
2021/01/03 03:17:39;;;;;;;11.23;7.90;;;3.00;99.90;;;;;;5034678;28;20414;-66
2021/01/03 03:20:06;;;;;;;11.50;8.47;;;3.00;99.90;;;;;;5034360;28;20461;-63
2021/01/03 03:22:31;;;;;;;11.13;8.07;;;3.00;99.90;;;;;;5034670;28;20180;-66
2021/01/03 03:24:57;;;;;;;12.17;7.80;;;3.00;99.90;;;;;;5034568;28;20502;-66
2021/01/03 03:27:22;;;;;;;12.00;7.47;;;3.00;99.90;;;;;;5034528;28;20176;-66
2021/01/03 03:29:48;;;;;;;10.70;7.03;;;2.90;99.90;;;;;;5025537;28;21715;-67
2021/01/03 03:32:14;;;;;;;12.17;8.47;;;3.00;99.90;;;;;;5034181;28;20234;-66
2021/01/03 03:34:39;;;;;;;10.80;8.13;;;3.00;99.90;;;;;;5034210;28;20649;-68
2021/01/03 03:37:05;;;;;;;11.17;7.17;;;3.00;99.90;;;;;;5034737;28;20175;-67
2021/01/03 03:39:30;;;;;;;16.70;8.53;;;3.00;99.90;;;;;;5034548;28;20649;-67
2021/01/03 03:41:57;;;;;;;10.53;7.73;;;3.00;99.90;;;;;;5034304;28;20395;-67
2021/01/03 03:44:24;;;;;;;9.60;7.37;;;3.00;99.90;;;;;;5034196;28;20182;-67
2021/01/03 03:46:54;;;;;;;11.03;7.83;;;3.00;99.90;;;;;;5034092;28;20612;-67
2021/01/03 03:49:20;;;;;;;9.80;7.30;;;3.00;99.90;;;;;;5034106;28;20422;-66
2021/01/03 03:51:46;;;;;;;8.93;7.00;;;2.90;99.90;;;;;;5033895;28;20444;-66
2021/01/03 03:54:12;;;;;;;9.33;6.83;;;2.90;99.90;;;;;;5033952;28;20893;-65
2021/01/03 03:56:37;;;;;;;11.13;6.63;;;2.90;99.90;;;;;;5033875;28;20194;-66
2021/01/03 03:59:03;;;;;;;9.23;6.77;;;2.90;99.90;;;;;;5034071;28;20601;-67
2021/01/03 04:01:38;;;;;;;10.00;7.20;;;2.90;99.90;;;;;;5034150;28;20196;-64
2021/01/03 04:04:04;;;;;;;10.50;7.23;;;3.00;99.90;;;;;;5034934;28;20568;-66
2021/01/03 04:06:30;;;;;;;8.37;6.77;;;3.00;99.90;;;;;;5051159;28;20425;-66
2021/01/03 04:08:55;;;;;;;7.80;6.20;;;3.00;99.90;;;;;;5053937;28;20507;-65
2021/01/03 04:11:21;;;;;;;9.63;7.00;;;3.00;99.90;;;;;;5052853;28;20179;-67
2021/01/03 04:13:47;;;;;;;10.97;6.40;;;2.90;99.90;;;;;;5044277;28;20237;-66
2021/01/03 04:16:12;;;;;;;9.23;6.50;;;2.90;99.90;;;;;;5038500;28;20175;-65
2021/01/03 04:18:38;;;;;;;9.03;6.60;;;2.90;99.90;;;;;;5049456;28;20271;-66
2021/01/03 04:21:04;;;;;;;9.27;6.93;;;2.90;99.90;;;;;;5052241;28;20175;-65
2021/01/03 04:23:29;;;;;;;10.60;6.90;;;2.90;99.90;;;;;;5051916;28;20633;-64
2021/01/03 04:25:55;;;;;;;9.13;7.27;;;2.90;99.90;;;;;;5042215;28;20657;-64
2021/01/03 04:28:20;;;;;;;8.27;7.00;;;2.90;99.90;;;;;;5039593;28;20182;-65
2021/01/03 04:30:46;;;;;;;8.10;6.73;;;2.90;99.90;;;;;;5053635;28;20211;-66
2021/01/03 04:33:11;;;;;;;9.07;6.67;;;2.90;99.90;;;;;;5053288;28;20531;-65
2021/01/03 04:35:37;;;;;;;8.17;6.40;;;2.90;99.90;;;;;;5053217;28;20180;-66
2021/01/03 04:38:03;;;;;;;10.47;7.33;;;3.00;99.90;;;;;;5040732;28;20525;-65
2021/01/03 04:40:30;;;;;;;9.87;6.93;;;3.00;99.90;;;;;;5042774;28;20186;-67
2021/01/03 04:43:02;;;;;;;7.60;6.27;;;3.00;99.90;;;;;;5034774;28;20180;-65
2021/01/03 04:45:34;;;;;;;8.73;7.10;;;3.00;99.90;;;;;;5047053;28;20561;-65
2021/01/03 04:48:05;;;;;;;9.93;7.23;;;2.90;99.90;;;;;;5034356;28;20772;-67
2021/01/03 04:50:42;;;;;;;9.03;6.67;;;2.90;99.90;;;;;;5035622;28;20473;-66
2021/01/03 04:53:48;;;;;;;9.23;6.87;;;2.90;99.90;;;;;;5035587;28;20449;-66
2021/01/03 04:56:17;;;;;;;11.27;6.97;;;3.00;99.90;;;;;;5049511;28;20417;-66
2021/01/03 04:58:56;;;;;;;8.50;6.73;;;2.90;99.90;;;;;;5044719;28;20450;-67
2021/01/03 05:01:53;;;;;;;8.80;6.77;;;2.90;99.90;;;;;;5034291;28;20411;-66
2021/01/03 05:04:43;;;;;;;9.63;6.90;;;2.90;99.90;;;;;;5047238;28;20449;-64
2021/01/03 05:07:13;;;;;;;9.70;7.80;;;2.80;99.90;;;;;;5051885;28;20417;-64
2021/01/03 05:09:39;;;;;;;9.87;7.50;;;2.90;99.90;;;;;;5032199;28;20457;-66
2021/01/03 05:12:33;;;;;;;11.33;6.80;;;3.00;99.90;;;;;;5052365;28;20461;-65
2021/01/03 05:15:06;;;;;;;8.73;7.17;;;3.10;99.90;;;;;;5046345;28;20472;-64
2021/01/03 05:17:31;;;;;;;11.67;6.90;;;3.10;99.90;;;;;;5028681;28;20411;-65
2021/01/03 05:19:57;;;;;;;9.87;7.90;;;3.10;99.90;;;;;;5050393;28;20420;-65
2021/01/03 05:22:36;;;;;;;9.53;7.40;;;3.00;99.90;;;;;;5051281;28;20270;-65
2021/01/03 05:25:05;;;;;;;9.27;7.37;;;3.00;99.90;;;;;;5052109;28;20193;-64
2021/01/03 05:27:31;;;;;;;8.63;7.20;;;2.90;99.90;;;;;;5048172;28;20414;-66
2021/01/03 05:30:15;;;;;;;8.07;6.77;;;2.90;99.90;;;;;;5052391;28;20547;-64
2021/01/03 05:32:41;;;;;;;8.90;6.70;;;2.80;99.90;;;;;;5051930;28;20480;-65
2021/01/03 05:35:27;;;;;;;9.83;7.43;;;2.90;99.90;;;;;;5052582;28;20465;-66
2021/01/03 05:37:55;;;;;;;7.97;6.80;;;2.80;99.90;;;;;;5050865;28;20190;-67
2021/01/03 05:40:30;;;;;;;10.43;8.40;;;2.90;99.90;;;;;;5042480;28;20920;-66
2021/01/03 05:43:11;;;;;;;9.57;7.53;;;2.80;99.90;;;;;;5050524;28;20496;-66
2021/01/03 05:46:03;;;;;;;10.50;8.00;;;2.90;99.90;;;;;;5039114;28;20421;-65
2021/01/03 05:48:37;;;;;;;9.13;7.57;;;2.90;99.90;;;;;;5040311;28;20742;-66
2021/01/03 05:51:09;;;;;;;8.23;6.97;;;3.00;99.90;;;;;;5032147;28;20978;-65
2021/01/03 05:53:34;;;;;;;10.80;8.43;;;3.00;99.90;;;;;;5038826;28;20853;-65
2021/01/03 05:56:03;;;;;;;9.80;8.17;;;3.00;99.90;;;;;;5033252;28;21034;-64
2021/01/03 05:58:43;;;;;;;12.23;8.53;;;3.10;99.90;;;;;;5036086;28;20182;-66
2021/01/03 06:01:18;;;;;;;10.67;8.30;;;3.10;99.90;;;;;;5041076;28;20418;-66
2021/01/03 06:03:58;;;;;;;12.23;8.90;;;3.10;99.90;;;;;;5050786;28;20476;-65
2021/01/03 06:06:37;;;;;;;9.73;8.30;;;3.10;99.90;;;;;;5051761;28;20410;-66
2021/01/03 06:09:04;;;;;;;10.07;7.90;;;3.10;99.90;;;;;;5049531;28;20425;-65
2021/01/03 06:11:31;;;;;;;10.93;8.73;;;3.20;99.90;;;;;;5040074;28;20872;-67
2021/01/03 06:13:58;;;;;;;9.90;7.83;;;3.20;99.90;;;;;;5050487;28;20409;-64
2021/01/03 06:16:31;;;;;;;11.57;8.57;;;3.20;99.90;;;;;;5051094;28;20414;-65
2021/01/03 06:19:06;;;;;;;11.30;7.63;;;3.20;99.90;;;;;;5051376;28;20538;-67
2021/01/03 06:21:38;;;;;;;11.90;8.73;;;3.10;99.90;;;;;;5051467;28;20420;-66
2021/01/03 06:24:18;;;;;;;11.93;10.07;;;3.20;99.90;;;;;;5051359;28;20457;-65
2021/01/03 06:26:49;;;;;;;13.10;9.57;;;3.20;99.90;;;;;;5043736;28;20410;-64
2021/01/03 06:29:41;;;;;;;11.97;9.60;;;3.20;99.90;;;;;;5050954;28;20467;-64
2021/01/03 06:32:28;;;;;;;13.60;9.27;;;3.20;99.90;;;;;;5051242;28;20947;-66
2021/01/03 06:35:20;;;;;;;13.00;9.97;;;3.20;99.90;;;;;;5048348;28;20406;-65
2021/01/03 06:38:04;;;;;;;14.90;10.80;;;3.20;99.90;;;;;;5040799;28;20421;-64
2021/01/03 06:40:34;;;;;;;14.97;10.90;;;3.10;99.90;;;;;;5051034;28;20425;-65
2021/01/03 06:43:21;;;;;;;15.53;10.33;;;3.00;99.90;;;;;;5050890;28;20461;-68
2021/01/03 06:46:32;;;;;;;14.73;10.27;;;3.00;99.90;;;;;;5047775;28;20414;-66
2021/01/03 06:49:17;;;;;;;13.87;10.50;;;3.10;99.90;;;;;;5050327;28;20496;-65
2021/01/03 06:52:02;;;;;;;14.77;10.83;;;3.00;99.90;;;;;;5035074;28;20442;-65
2021/01/03 06:54:58;;;;;;;15.83;11.40;;;3.00;99.90;;;;;;5050961;28;20793;-65
2021/01/03 06:57:45;;;;;;;15.87;11.83;;;2.90;99.90;;;;;;5050395;28;20413;-64
2021/01/03 07:00:36;;;;;;;17.17;11.80;;;3.00;99.90;;;;;;5051057;28;20410;-65
2021/01/03 07:03:14;;;;;;;15.37;12.20;;;3.00;99.90;;;;;;5036586;28;20445;-66
2021/01/03 07:05:57;;;;;;;16.83;11.33;;;3.10;99.90;;;;;;5051537;28;20451;-65
2021/01/03 07:08:26;;;;;;;14.77;11.97;;;3.10;99.90;;;;;;5051516;28;20492;-66
2021/01/03 07:10:52;;;;;;;17.43;12.53;;;3.00;99.90;;;;;;5051254;28;20417;-63
2021/01/03 07:13:30;;;;;;;18.30;12.40;;;2.90;99.90;;;;;;5051352;28;20511;-64
2021/01/03 07:16:00;;;;;;;15.30;11.90;;;2.90;99.90;;;;;;5045628;28;20176;-64
2021/01/03 07:18:26;;;;;;;18.13;13.60;;;2.90;99.90;;;;;;5030115;28;21003;-64
2021/01/03 07:20:58;;;;;;;16.73;12.63;;;2.80;99.90;;;;;;5050224;28;20502;-65
2021/01/03 07:23:35;;;;;;;19.50;13.20;;;2.80;99.90;;;;;;5037813;28;20487;-64
2021/01/03 07:26:24;;;;;;;19.03;12.97;;;2.80;99.90;;;;;;5049955;28;20452;-65
2021/01/03 07:29:06;;;;;;;19.43;13.13;;;2.80;99.90;;;;;;5041521;28;20559;-66
2021/01/03 07:31:38;;;;;;;18.30;13.50;;;2.80;99.90;;;;;;5051057;28;20508;-66
2021/01/03 07:34:48;;;;;;;20.53;13.33;;;2.80;99.90;;;;;;5049202;28;20896;-66
2021/01/03 07:37:26;;;;;;;19.07;12.97;;;2.80;99.90;;;;;;4970490;28;20931;-65
2021/01/03 07:39:59;;;;;;;19.87;13.70;;;2.90;99.90;;;;;;4970249;28;20483;-65
2021/01/03 07:42:32;;;;;;;19.90;13.30;;;2.90;99.90;;;;;;4970138;28;20476;-65
2021/01/03 07:44:59;;;;;;;21.97;15.10;;;3.00;99.90;;;;;;4970168;28;20433;-66
2021/01/03 07:47:45;;;;;;;21.13;14.83;;;3.00;99.90;;;;;;4972163;28;20432;-64
2021/01/03 07:50:17;;;;;;;21.53;14.83;;;3.10;99.90;;;;;;4973253;28;20425;-66
2021/01/03 07:52:52;;;;;;;21.43;14.63;;;3.00;99.90;;;;;;4973239;28;20456;-66
2021/01/03 07:55:24;;;;;;;20.83;15.20;;;3.00;99.90;;;;;;4973077;28;20417;-67
2021/01/03 07:58:00;;;;;;;20.93;15.07;;;3.00;99.90;;;;;;4956933;28;20417;-68
2021/01/03 08:00:29;;;;;;;21.47;14.17;;;3.00;99.90;;;;;;4973056;28;20421;-64
2021/01/03 08:03:08;;;;;;;18.10;13.93;;;2.90;99.90;;;;;;4973279;28;20417;-65
2021/01/03 08:05:35;;;;;;;21.60;14.97;;;2.90;99.90;;;;;;4973050;28;20843;-66
2021/01/03 08:08:10;;;;;;;21.67;15.27;;;2.90;99.90;;;;;;5017565;28;20425;-64
2021/01/03 08:10:36;;;;;;;23.83;16.37;;;2.90;99.90;;;;;;5043719;28;20437;-64
2021/01/03 08:13:09;;;;;;;21.30;15.77;;;2.80;99.90;;;;;;5033820;28;20461;-65
2021/01/03 08:15:35;;;;;;;24.53;17.20;;;2.70;99.90;;;;;;5052937;28;20518;-67
2021/01/03 08:18:21;;;;;;;24.03;16.23;;;2.80;99.90;;;;;;5053787;28;20490;-65
2021/01/03 08:20:49;;;;;;;27.90;17.77;;;2.70;99.90;;;;;;5047121;28;20745;-68
2021/01/03 08:23:29;;;;;;;24.83;17.27;;;2.80;99.90;;;;;;5052264;28;20425;-64
2021/01/03 08:26:26;;;;;;;25.53;16.87;;;2.90;99.90;;;;;;5047396;28;20461;-66
2021/01/03 08:29:18;;;;;;;24.83;17.07;;;2.90;99.90;;;;;;5051449;28;20811;-65
2021/01/03 08:31:52;;;;;;;23.67;16.53;;;2.80;99.90;;;;;;5053440;28;20449;-67
2021/01/03 08:34:24;;;;;;;23.00;16.73;;;2.90;99.90;;;;;;5053375;28;20764;-65
2021/01/03 08:36:50;;;;;;;24.40;17.10;;;3.00;99.90;;;;;;5053367;28;20414;-64
2021/01/03 08:39:16;;;;;;;22.70;16.63;;;3.00;99.90;;;;;;5053500;28;20410;-67
2021/01/03 08:42:05;;;;;;;23.37;16.93;;;3.10;99.90;;;;;;5052986;28;20699;-64
2021/01/03 08:44:41;;;;;;;22.77;16.53;;;3.20;99.90;;;;;;5053103;28;20417;-65
2021/01/03 08:47:17;;;;;;;25.57;17.03;;;3.20;99.90;;;;;;5053118;28;20908;-64
2021/01/03 08:49:42;;;;;;;24.53;16.43;;;3.20;99.90;;;;;;5052777;28;20516;-67
2021/01/03 08:52:17;;;;;;;25.10;17.03;;;3.20;99.90;;;;;;5052863;28;20556;-62
2021/01/03 08:54:48;;;;;;;26.00;17.03;;;3.10;99.90;;;;;;5053223;28;20174;-65
2021/01/03 08:57:15;;;;;;;27.67;18.20;;;3.20;99.90;;;;;;5051476;28;20861;-65
2021/01/03 08:59:41;;;;;;;28.17;18.70;;;3.20;99.90;;;;;;5048750;28;21429;-66
2021/01/03 09:02:23;;;;;;;27.50;18.23;;;3.20;99.90;;;;;;5051440;28;20448;-68
2021/01/03 09:04:53;;;;;;;26.27;18.70;;;3.10;99.90;;;;;;5052033;28;20499;-63
2021/01/03 09:07:19;;;;;;;27.80;18.77;;;3.10;99.90;;;;;;5052517;28;20807;-65
2021/01/03 09:09:47;;;;;;;26.53;18.23;;;3.00;99.90;;;;;;5052741;28;20430;-65
2021/01/03 09:12:14;;;;;;;27.77;18.97;;;3.00;99.90;;;;;;5052486;28;20484;-65
2021/01/03 09:14:50;;;;;;;30.17;19.93;;;3.00;99.90;;;;;;5052463;28;20923;-64
2021/01/03 09:17:21;;;;;;;27.97;19.00;;;3.00;99.90;;;;;;5052497;28;20401;-65
2021/01/03 09:20:12;;;;;;;24.03;17.83;;;3.00;99.90;;;;;;5038313;28;20417;-64
2021/01/03 09:22:42;;;;;;;26.37;19.13;;;3.00;99.90;;;;;;5051093;28;20911;-64
2021/01/03 09:25:25;;;;;;;28.20;18.53;;;3.00;99.90;;;;;;5035606;28;20934;-65
2021/01/03 09:27:56;;;;;;;27.90;19.50;;;3.00;99.90;;;;;;5039462;28;20457;-63
2021/01/03 09:30:34;;;;;;;29.43;19.60;;;3.00;99.90;;;;;;5050655;28;20415;-65
2021/01/03 09:33:26;;;;;;;26.63;19.33;;;3.00;99.90;;;;;;5051939;28;20445;-64
2021/01/03 09:36:19;;;;;;;27.07;19.40;;;2.90;99.90;;;;;;5052263;28;20420;-66
2021/01/03 09:38:55;;;;;;;30.30;20.07;;;2.90;99.90;;;;;;5051679;28;20418;-66
2021/01/03 09:41:24;;;;;;;30.43;19.70;;;2.90;99.90;;;;;;5034259;28;20422;-63
2021/01/03 09:44:20;;;;;;;29.23;19.37;;;3.00;99.90;;;;;;5052231;28;20429;-65
2021/01/03 09:47:03;;;;;;;33.03;20.40;;;3.00;99.90;;;;;;5052123;28;20855;-67
2021/01/03 09:49:46;;;;;;;30.03;19.47;;;3.00;99.90;;;;;;5051748;28;20519;-65
2021/01/03 09:52:18;;;;;;;28.50;18.83;;;3.10;99.90;;;;;;5051824;28;20448;-64
2021/01/03 09:54:50;;;;;;;29.23;18.97;;;3.10;99.90;;;;;;5051509;28;20414;-66
2021/01/03 09:57:27;;;;;;;29.90;18.73;;;3.10;99.90;;;;;;5049344;28;20507;-64
2021/01/03 10:00:07;;;;;;;28.17;18.23;;;3.20;99.90;;;;;;5051279;28;20464;-64
2021/01/03 10:02:33;;;;;;;24.50;17.20;;;3.20;99.90;;;;;;5033966;28;20414;-64
2021/01/03 10:05:30;;;;;;;27.90;17.87;;;3.20;99.90;;;;;;5029762;28;20512;-64
2021/01/03 10:08:02;;;;;;;22.83;16.40;;;3.10;99.90;;;;;;5030987;28;20180;-66
2021/01/03 10:10:56;;;;;;;24.30;17.13;;;3.00;99.90;;;;;;5031571;28;20419;-64
2021/01/03 10:13:24;;;;;;;22.60;15.87;;;2.90;99.90;;;;;;5031564;28;20489;-66
2021/01/03 10:15:50;;;;;;;22.60;15.70;;;2.90;99.90;;;;;;5031496;28;20410;-65
2021/01/03 10:18:33;;;;;;;29.10;16.10;;;2.70;99.90;;;;;;5031169;28;20505;-66
2021/01/03 10:21:00;;;;;;;23.20;17.00;;;2.80;99.90;;;;;;5031058;28;20481;-65
2021/01/03 10:23:41;;;;;;;22.13;15.57;;;2.80;99.90;;;;;;5031565;28;20488;-66
2021/01/03 10:26:28;;;;;;;24.37;16.27;;;2.80;99.90;;;;;;5031411;28;20742;-64
2021/01/03 10:28:54;;;;;;;21.47;16.37;;;2.90;99.90;;;;;;5031156;28;20421;-65
2021/01/03 10:31:21;;;;;;;24.47;16.50;;;2.90;99.90;;;;;;5031555;28;20501;-65
2021/01/03 10:33:47;;;;;;;24.47;16.30;;;2.90;99.90;;;;;;5031124;28;20929;-64
2021/01/03 10:36:20;;;;;;;23.63;17.33;;;2.90;99.90;;;;;;5031128;28;20430;-64
2021/01/03 10:38:47;;;;;;;23.77;16.53;;;3.00;99.90;;;;;;5031108;28;20431;-63
2021/01/03 10:41:13;;;;;;;21.47;15.53;;;2.90;99.90;;;;;;5031025;28;20427;-65
2021/01/03 10:43:39;;;;;;;20.77;15.03;;;2.90;99.90;;;;;;5031264;28;20473;-65
2021/01/03 10:46:04;;;;;;;19.60;15.17;;;3.00;99.90;;;;;;5030802;28;20458;-64
2021/01/03 10:48:30;;;;;;;19.83;14.97;;;3.00;99.90;;;;;;5030929;28;20175;-63
2021/01/03 10:50:55;;;;;;;22.23;14.87;;;3.00;99.90;;;;;;5030915;28;20168;-64
2021/01/03 10:53:21;;;;;;;21.63;14.80;;;2.90;99.90;;;;;;5031001;28;20262;-65
2021/01/03 10:55:47;;;;;;;22.27;15.10;;;2.90;99.90;;;;;;5030890;28;20214;-65
2021/01/03 10:58:13;;;;;;;20.33;14.30;;;2.80;99.90;;;;;;5030871;28;20172;-66
2021/01/03 11:00:39;;;;;;;22.50;16.07;;;2.70;99.90;;;;;;5030987;28;20518;-64
2021/01/03 11:03:04;;;;;;;25.37;16.37;;;2.70;99.90;;;;;;5031416;28;20429;-66
2021/01/03 11:05:30;;;;;;;23.67;15.40;;;2.70;99.90;;;;;;5030839;28;20175;-64
2021/01/03 11:07:57;;;;;;;21.70;15.37;;;2.60;99.90;;;;;;5030922;28;20180;-65
2021/01/03 11:10:22;;;;;;;20.83;14.13;;;2.60;99.90;;;;;;5030827;28;20528;-66
2021/01/03 11:12:48;;;;;;;19.70;14.30;;;2.60;99.90;;;;;;5030773;28;20462;-66
2021/01/03 11:15:14;;;;;;;20.77;15.73;;;2.60;99.90;;;;;;5030732;28;20169;-68
2021/01/03 11:17:39;;;;;;;24.07;14.20;;;2.60;99.90;;;;;;5030897;28;20172;-64
2021/01/03 11:20:06;;;;;;;20.27;14.80;;;2.50;99.90;;;;;;5031708;28;20207;-65
2021/01/03 11:22:31;;;;;;;22.07;14.27;;;2.60;99.90;;;;;;5034337;28;20222;-64
2021/01/03 11:24:57;;;;;;;24.63;15.90;;;2.60;99.90;;;;;;5034741;28;20924;-66
2021/01/03 11:27:22;;;;;;;24.20;16.37;;;2.80;99.90;;;;;;5034391;28;20194;-64
2021/01/03 11:29:50;;;;;;;23.13;16.27;;;2.80;99.90;;;;;;5034589;28;20184;-66
2021/01/03 11:32:19;;;;;;;18.53;13.10;;;2.80;99.90;;;;;;5034699;28;20191;-66
2021/01/03 11:34:45;;;;;;;21.60;15.90;;;2.80;99.90;;;;;;5034573;28;20410;-67
2021/01/03 11:37:15;;;;;;;22.00;15.03;;;2.80;99.90;;;;;;5034291;28;20422;-64
2021/01/03 11:39:40;;;;;;;19.80;14.00;;;2.80;99.90;;;;;;5033918;28;20183;-65
2021/01/03 11:42:10;;;;;;;18.13;13.27;;;2.90;99.90;;;;;;5034388;28;20912;-65
2021/01/03 11:44:37;;;;;;;21.27;15.07;;;2.90;99.90;;;;;;5034122;28;20176;-64
2021/01/03 11:47:06;;;;;;;21.10;14.77;;;3.00;99.90;;;;;;5034336;28;20414;-65
2021/01/03 11:49:32;;;;;;;22.77;15.77;;;3.00;99.90;;;;;;5032938;28;20429;-65
2021/01/03 11:52:06;;;;;;;24.13;16.43;;;2.90;99.90;;;;;;5034173;28;20449;-67
2021/01/03 11:54:33;;;;;;;23.17;15.60;;;2.80;99.90;;;;;;5034050;28;20905;-64
2021/01/03 11:56:59;;;;;;;22.40;16.70;;;2.90;99.90;;;;;;5034231;28;20517;-65
2021/01/03 11:59:25;;;;;;;22.67;16.60;;;3.00;99.90;;;;;;5033955;28;20493;-65
2021/01/03 12:02:07;;;;;;;23.57;16.10;;;3.00;99.90;;;;;;5033828;28;20532;-67
2021/01/03 12:04:34;;;;;;;21.90;15.70;;;3.10;99.90;;;;;;5034574;28;20454;-64
2021/01/03 12:07:03;;;;;;;22.33;15.73;;;3.10;99.90;;;;;;5034158;28;20994;-69
2021/01/03 12:09:30;;;;;;;22.27;15.40;;;3.00;99.90;;;;;;5049365;28;20432;-67
2021/01/03 12:12:17;;;;;;;20.47;15.07;;;3.10;99.90;;;;;;5053487;28;20452;-66
2021/01/03 12:14:43;;;;;;;23.40;17.30;;;2.90;99.90;;;;;;5053522;28;20418;-66
2021/01/03 12:17:12;;;;;;;21.50;15.23;;;3.30;99.90;;;;;;5053492;28;20416;-64
2021/01/03 12:19:38;;;;;;;21.77;15.43;;;2.90;99.90;;;;;;5053729;28;20178;-67
2021/01/03 12:22:05;;;;;;;26.43;16.30;;;3.00;99.90;;;;;;5053464;28;20883;-64
2021/01/03 12:24:31;;;;;;;23.83;17.37;;;3.00;99.90;;;;;;5053625;28;20464;-66
2021/01/03 12:26:57;;;;;;;25.20;16.27;;;3.10;99.90;;;;;;5053285;28;20425;-63
2021/01/03 12:29:24;;;;;;;23.40;16.87;;;3.00;99.90;;;;;;5053441;28;20421;-65
2021/01/03 12:31:53;;;;;;;22.67;16.83;;;3.10;99.90;;;;;;5052529;28;20456;-65
2021/01/03 12:34:28;;;;;;;23.93;16.00;;;3.20;99.90;;;;;;5053343;28;20768;-67
2021/01/03 12:37:06;;;;;;;22.63;16.60;;;3.20;99.90;;;;;;5053170;28;20409;-65
2021/01/03 12:39:33;;;;;;;25.23;16.87;;;3.20;99.90;;;;;;5053558;28;20467;-63
2021/01/03 12:42:00;;;;;;;35.43;20.63;;;3.20;99.90;;;;;;5053193;28;20491;-65
2021/01/03 12:44:26;;;;;;;29.37;19.50;;;3.10;99.90;;;;;;5053345;28;20433;-65
2021/01/03 12:46:52;;;;;;;32.00;18.77;;;3.10;99.90;;;;;;5053127;28;20625;-65
2021/01/03 12:49:18;;;;;;;23.27;16.97;;;3.20;99.90;;;;;;5052968;28;20433;-63
2021/01/03 12:51:43;;;;;;;21.57;16.13;;;3.00;99.90;;;;;;5053162;28;20424;-67
2021/01/03 12:54:09;;;;;;;22.23;16.30;;;3.10;99.90;;;;;;5052797;28;20206;-64
2021/01/03 12:56:36;;;;;;;21.80;15.50;;;3.10;99.90;;;;;;5052525;28;20179;-64
2021/01/03 12:59:03;;;;;;;21.23;15.93;;;3.00;99.90;;;;;;5053312;28;20337;-64
2021/01/03 13:01:34;;;;;;;24.10;15.67;;;3.10;99.90;;;;;;5052786;28;20790;-64
2021/01/03 13:04:01;;;;;;;23.27;15.80;;;3.10;99.90;;;;;;5045742;28;20841;-65
2021/01/03 13:06:27;;;;;;;21.20;15.50;;;3.20;99.90;;;;;;5032567;28;20418;-65